sensor_id;sensor_type;location;lat;lon;timestamp;temperature;humidity
35970;DHT22;22448;51.298;6.430;2024-03-23T00:54:12;6.20;99.90
35970;DHT22;22448;51.298;6.430;2024-03-23T00:56:38;6.10;99.90
35970;DHT22;22448;51.298;6.430;2024-03-23T00:59:05;6.10;99.90
35970;DHT22;22448;51.298;6.430;2024-03-23T01:01:31;6.10;99.90
35970;DHT22;22448;51.298;6.430;2024-03-23T01:03:57;6.00;99.90
35970;DHT22;22448;51.298;6.430;2024-03-23T01:06:23;6.00;99.90
35970;DHT22;22448;51.298;6.430;2024-03-23T01:08:49;6.00;99.90
35970;DHT22;22448;51.298;6.430;2024-03-23T01:11:15;6.00;99.90
35970;DHT22;22448;51.298;6.430;2024-03-23T01:13:42;6.00;99.90
35970;DHT22;22448;51.298;6.430;2024-03-23T01:16:08;6.00;99.90
35970;DHT22;22448;51.298;6.430;2024-03-23T01:18:34;6.00;99.90
35970;DHT22;22448;51.298;6.430;2024-03-23T01:21:00;6.00;99.90
35970;DHT22;22448;51.298;6.430;2024-03-23T01:23:26;6.00;99.90
35970;DHT22;22448;51.298;6.430;2024-03-23T01:25:53;6.10;99.90
35970;DHT22;22448;51.298;6.430;2024-03-23T01:28:20;6.10;99.90
35970;DHT22;22448;51.298;6.430;2024-03-23T01:30:47;6.10;99.90
35970;DHT22;22448;51.298;6.430;2024-03-23T01:33:14;6.00;99.90
35970;DHT22;22448;51.298;6.430;2024-03-23T01:35:40;6.00;99.90
35970;DHT22;22448;51.298;6.430;2024-03-23T01:38:06;6.00;99.90
35970;DHT22;22448;51.298;6.430;2024-03-23T01:40:33;6.00;99.90
35970;DHT22;22448;51.298;6.430;2024-03-23T01:43:04;6.00;99.90
35970;DHT22;22448;51.298;6.430;2024-03-23T01:45:31;6.00;99.90
35970;DHT22;22448;51.298;6.430;2024-03-23T01:47:59;6.00;99.90
35970;DHT22;22448;51.298;6.430;2024-03-23T01:50:26;6.00;99.90
35970;DHT22;22448;51.298;6.430;2024-03-23T01:52:53;6.00;99.90
35970;DHT22;22448;51.298;6.430;2024-03-23T01:55:20;6.00;99.90
35970;DHT22;22448;51.298;6.430;2024-03-23T01:57:46;6.00;99.90
35970;DHT22;22448;51.298;6.430;2024-03-23T02:00:13;6.00;99.90
35970;DHT22;22448;51.298;6.430;2024-03-23T02:02:46;5.90;99.90
35970;DHT22;22448;51.298;6.430;2024-03-23T02:05:13;5.90;99.90
35970;DHT22;22448;51.298;6.430;2024-03-23T02:07:40;5.90;99.90
35970;DHT22;22448;51.298;6.430;2024-03-23T02:10:07;5.90;99.90
35970;DHT22;22448;51.298;6.430;2024-03-23T02:12:36;5.90;99.90
35970;DHT22;22448;51.298;6.430;2024-03-23T02:15:03;5.90;99.90
35970;DHT22;22448;51.298;6.430;2024-03-23T02:17:31;5.90;99.90
35970;DHT22;22448;51.298;6.430;2024-03-23T02:19:58;5.80;99.90
35970;DHT22;22448;51.298;6.430;2024-03-23T02:22:24;5.90;99.90
35970;DHT22;22448;51.298;6.430;2024-03-23T02:24:50;5.80;99.90
35970;DHT22;22448;51.298;6.430;2024-03-23T02:27:16;5.80;99.90
35970;DHT22;22448;51.298;6.430;2024-03-23T02:29:42;5.80;99.90
35970;DHT22;22448;51.298;6.430;2024-03-23T02:32:08;5.80;99.90
35970;DHT22;22448;51.298;6.430;2024-03-23T02:34:35;5.80;99.90
35970;DHT22;22448;51.298;6.430;2024-03-23T02:37:02;5.80;99.90
35970;DHT22;22448;51.298;6.430;2024-03-23T02:39:28;5.80;99.90
35970;DHT22;22448;51.298;6.430;2024-03-23T02:41:54;5.80;99.90
35970;DHT22;22448;51.298;6.430;2024-03-23T02:44:20;5.80;99.90
35970;DHT22;22448;51.298;6.430;2024-03-23T02:46:46;5.80;99.90
35970;DHT22;22448;51.298;6.430;2024-03-23T02:49:13;5.80;99.90
35970;DHT22;22448;51.298;6.430;2024-03-23T02:51:40;5.80;99.90
35970;DHT22;22448;51.298;6.430;2024-03-23T02:54:07;5.80;99.90
35970;DHT22;22448;51.298;6.430;2024-03-23T02:56:33;5.80;99.90
35970;DHT22;22448;51.298;6.430;2024-03-23T02:58:59;5.80;99.90
35970;DHT22;22448;51.298;6.430;2024-03-23T03:01:25;5.80;99.90
35970;DHT22;22448;51.298;6.430;2024-03-23T03:03:52;5.80;99.90
35970;DHT22;22448;51.298;6.430;2024-03-23T03:06:25;5.80;99.90
35970;DHT22;22448;51.298;6.430;2024-03-23T03:08:51;5.80;99.90
35970;DHT22;22448;51.298;6.430;2024-03-23T03:11:17;5.80;99.90
35970;DHT22;22448;51.298;6.430;2024-03-23T03:13:44;5.80;99.90
35970;DHT22;22448;51.298;6.430;2024-03-23T03:16:10;5.80;99.90
35970;DHT22;22448;51.298;6.430;2024-03-23T03:18:37;5.80;99.90
35970;DHT22;22448;51.298;6.430;2024-03-23T03:21:04;5.80;99.90
35970;DHT22;22448;51.298;6.430;2024-03-23T03:23:32;5.90;99.90
35970;DHT22;22448;51.298;6.430;2024-03-23T03:25:59;5.90;99.90
35970;DHT22;22448;51.298;6.430;2024-03-23T03:28:25;5.80;99.90
35970;DHT22;22448;51.298;6.430;2024-03-23T03:30:52;5.80;99.90
35970;DHT22;22448;51.298;6.430;2024-03-23T03:33:18;5.90;99.90
35970;DHT22;22448;51.298;6.430;2024-03-23T03:35:44;5.80;99.90
35970;DHT22;22448;51.298;6.430;2024-03-23T03:38:11;5.80;99.90
35970;DHT22;22448;51.298;6.430;2024-03-23T03:40:37;5.80;99.90
35970;DHT22;22448;51.298;6.430;2024-03-23T03:43:04;5.90;99.90
35970;DHT22;22448;51.298;6.430;2024-03-23T03:45:30;5.90;99.90
35970;DHT22;22448;51.298;6.430;2024-03-23T03:47:56;5.80;99.90
35970;DHT22;22448;51.298;6.430;2024-03-23T03:50:22;5.80;99.90
35970;DHT22;22448;51.298;6.430;2024-03-23T03:52:48;5.80;99.90
35970;DHT22;22448;51.298;6.430;2024-03-23T03:55:15;5.80;99.90
35970;DHT22;22448;51.298;6.430;2024-03-23T03:57:42;5.80;99.90
35970;DHT22;22448;51.298;6.430;2024-03-23T04:00:08;5.80;99.90
35970;DHT22;22448;51.298;6.430;2024-03-23T04:02:38;5.80;99.90
35970;DHT22;22448;51.298;6.430;2024-03-23T04:05:04;5.80;99.90
35970;DHT22;22448;51.298;6.430;2024-03-23T04:07:31;5.80;99.90
35970;DHT22;22448;51.298;6.430;2024-03-23T04:09:57;5.70;99.90
35970;DHT22;22448;51.298;6.430;2024-03-23T04:12:23;5.80;99.90
35970;DHT22;22448;51.298;6.430;2024-03-23T04:14:50;5.80;99.90
35970;DHT22;22448;51.298;6.430;2024-03-23T04:17:16;5.80;99.90
35970;DHT22;22448;51.298;6.430;2024-03-23T04:19:43;5.80;99.90
35970;DHT22;22448;51.298;6.430;2024-03-23T04:22:10;5.70;99.90
35970;DHT22;22448;51.298;6.430;2024-03-23T04:24:36;5.70;99.90
35970;DHT22;22448;51.298;6.430;2024-03-23T04:27:02;5.70;99.90
35970;DHT22;22448;51.298;6.430;2024-03-23T04:29:29;5.70;99.90
35970;DHT22;22448;51.298;6.430;2024-03-23T04:31:55;5.70;99.90
35970;DHT22;22448;51.298;6.430;2024-03-23T04:34:21;5.70;99.90
35970;DHT22;22448;51.298;6.430;2024-03-23T04:36:49;5.80;99.90
35970;DHT22;22448;51.298;6.430;2024-03-23T04:39:15;5.80;99.90
35970;DHT22;22448;51.298;6.430;2024-03-23T04:41:41;5.80;99.90
35970;DHT22;22448;51.298;6.430;2024-03-23T04:44:07;5.70;99.90
35970;DHT22;22448;51.298;6.430;2024-03-23T04:46:33;5.80;99.90
35970;DHT22;22448;51.298;6.430;2024-03-23T04:49:00;5.70;99.90
35970;DHT22;22448;51.298;6.430;2024-03-23T04:51:26;5.70;99.90
35970;DHT22;22448;51.298;6.430;2024-03-23T04:53:52;5.70;99.90
35970;DHT22;22448;51.298;6.430;2024-03-23T04:56:19;5.70;99.90
35970;DHT22;22448;51.298;6.430;2024-03-23T04:58:45;5.70;99.90
35970;DHT22;22448;51.298;6.430;2024-03-23T05:01:11;5.60;99.90
35970;DHT22;22448;51.298;6.430;2024-03-23T05:03:38;5.70;99.90
35970;DHT22;22448;51.298;6.430;2024-03-23T05:06:04;5.70;99.90
35970;DHT22;22448;51.298;6.430;2024-03-23T05:08:31;5.70;99.90
35970;DHT22;22448;51.298;6.430;2024-03-23T05:10:57;5.70;99.90
35970;DHT22;22448;51.298;6.430;2024-03-23T05:13:23;5.70;99.90
35970;DHT22;22448;51.298;6.430;2024-03-23T05:15:54;5.70;99.90
35970;DHT22;22448;51.298;6.430;2024-03-23T05:18:21;5.70;99.90
35970;DHT22;22448;51.298;6.430;2024-03-23T05:20:47;5.70;99.90
35970;DHT22;22448;51.298;6.430;2024-03-23T05:23:14;5.60;99.90
35970;DHT22;22448;51.298;6.430;2024-03-23T05:25:40;5.60;99.90
35970;DHT22;22448;51.298;6.430;2024-03-23T05:28:06;5.60;99.90
35970;DHT22;22448;51.298;6.430;2024-03-23T05:30:32;5.60;99.90
35970;DHT22;22448;51.298;6.430;2024-03-23T05:32:58;5.50;99.90
35970;DHT22;22448;51.298;6.430;2024-03-23T05:35:25;5.40;99.90
35970;DHT22;22448;51.298;6.430;2024-03-23T05:37:51;5.40;99.90
35970;DHT22;22448;51.298;6.430;2024-03-23T05:40:17;5.30;99.90
35970;DHT22;22448;51.298;6.430;2024-03-23T05:42:43;5.30;99.90
35970;DHT22;22448;51.298;6.430;2024-03-23T05:45:09;5.20;99.90
35970;DHT22;22448;51.298;6.430;2024-03-23T05:47:37;5.20;99.90
35970;DHT22;22448;51.298;6.430;2024-03-23T05:50:04;5.20;99.90
35970;DHT22;22448;51.298;6.430;2024-03-23T05:52:30;5.10;99.90
35970;DHT22;22448;51.298;6.430;2024-03-23T05:54:56;5.10;99.90
35970;DHT22;22448;51.298;6.430;2024-03-23T05:57:22;5.00;99.90
35970;DHT22;22448;51.298;6.430;2024-03-23T05:59:48;5.00;99.90
35970;DHT22;22448;51.298;6.430;2024-03-23T06:02:14;5.00;99.90
35970;DHT22;22448;51.298;6.430;2024-03-23T06:04:41;5.00;99.90
35970;DHT22;22448;51.298;6.430;2024-03-23T06:07:07;5.10;99.90
35970;DHT22;22448;51.298;6.430;2024-03-23T06:09:42;5.40;99.90
35970;DHT22;22448;51.298;6.430;2024-03-23T06:12:09;5.90;99.90
35970;DHT22;22448;51.298;6.430;2024-03-23T06:14:35;6.70;99.90
35970;DHT22;22448;51.298;6.430;2024-03-23T06:17:01;7.60;99.90
35970;DHT22;22448;51.298;6.430;2024-03-23T06:19:28;8.50;99.90
35970;DHT22;22448;51.298;6.430;2024-03-23T06:21:54;9.50;99.90
35970;DHT22;22448;51.298;6.430;2024-03-23T06:24:21;10.50;99.90
35970;DHT22;22448;51.298;6.430;2024-03-23T06:26:48;11.30;99.90
35970;DHT22;22448;51.298;6.430;2024-03-23T06:29:14;12.00;99.90
35970;DHT22;22448;51.298;6.430;2024-03-23T06:31:40;12.60;99.90
35970;DHT22;22448;51.298;6.430;2024-03-23T06:34:06;13.30;99.90
35970;DHT22;22448;51.298;6.430;2024-03-23T06:36:33;13.80;99.90
35970;DHT22;22448;51.298;6.430;2024-03-23T06:38:59;14.10;99.90
35970;DHT22;22448;51.298;6.430;2024-03-23T06:41:25;14.20;99.90
35970;DHT22;22448;51.298;6.430;2024-03-23T06:43:52;14.20;99.90
35970;DHT22;22448;51.298;6.430;2024-03-23T06:46:18;14.40;99.90
35970;DHT22;22448;51.298;6.430;2024-03-23T06:48:47;14.30;99.90
35970;DHT22;22448;51.298;6.430;2024-03-23T06:51:13;14.30;99.90
35970;DHT22;22448;51.298;6.430;2024-03-23T06:53:39;14.10;99.90
35970;DHT22;22448;51.298;6.430;2024-03-23T06:56:06;13.90;99.90
35970;DHT22;22448;51.298;6.430;2024-03-23T06:58:32;13.90;99.90
35970;DHT22;22448;51.298;6.430;2024-03-23T07:00:58;13.30;99.90
35970;DHT22;22448;51.298;6.430;2024-03-23T07:03:25;12.80;99.90
35970;DHT22;22448;51.298;6.430;2024-03-23T07:05:52;12.80;99.90
35970;DHT22;22448;51.298;6.430;2024-03-23T07:08:18;12.90;99.90
35970;DHT22;22448;51.298;6.430;2024-03-23T07:10:48;13.50;99.90
35970;DHT22;22448;51.298;6.430;2024-03-23T07:13:14;13.10;99.90
35970;DHT22;22448;51.298;6.430;2024-03-23T07:15:40;13.10;99.90
35970;DHT22;22448;51.298;6.430;2024-03-23T07:18:06;12.60;99.90
35970;DHT22;22448;51.298;6.430;2024-03-23T07:20:32;12.40;99.90
35970;DHT22;22448;51.298;6.430;2024-03-23T07:22:59;12.40;99.90
35970;DHT22;22448;51.298;6.430;2024-03-23T07:25:25;12.10;99.90
35970;DHT22;22448;51.298;6.430;2024-03-23T07:27:55;12.40;99.90
35970;DHT22;22448;51.298;6.430;2024-03-23T07:30:22;12.40;99.90
35970;DHT22;22448;51.298;6.430;2024-03-23T07:32:48;12.60;99.90
35970;DHT22;22448;51.298;6.430;2024-03-23T07:35:14;12.40;99.90
35970;DHT22;22448;51.298;6.430;2024-03-23T07:37:41;12.40;99.90
35970;DHT22;22448;51.298;6.430;2024-03-23T07:40:08;12.80;99.90
35970;DHT22;22448;51.298;6.430;2024-03-23T07:42:34;13.60;99.90
35970;DHT22;22448;51.298;6.430;2024-03-23T07:45:00;13.80;99.90
35970;DHT22;22448;51.298;6.430;2024-03-23T07:47:26;13.30;99.90
35970;DHT22;22448;51.298;6.430;2024-03-23T07:49:52;13.00;99.90
35970;DHT22;22448;51.298;6.430;2024-03-23T07:52:18;13.20;99.90
35970;DHT22;22448;51.298;6.430;2024-03-23T07:54:45;13.10;99.90
35970;DHT22;22448;51.298;6.430;2024-03-23T07:57:11;12.10;99.90
35970;DHT22;22448;51.298;6.430;2024-03-23T07:59:37;11.10;99.90
35970;DHT22;22448;51.298;6.430;2024-03-23T08:02:04;11.00;99.90
35970;DHT22;22448;51.298;6.430;2024-03-23T08:04:31;11.30;99.90
35970;DHT22;22448;51.298;6.430;2024-03-23T08:06:57;11.10;99.90
35970;DHT22;22448;51.298;6.430;2024-03-23T08:09:23;10.50;99.90
35970;DHT22;22448;51.298;6.430;2024-03-23T08:11:50;10.60;99.90
35970;DHT22;22448;51.298;6.430;2024-03-23T08:14:16;10.60;99.90
35970;DHT22;22448;51.298;6.430;2024-03-23T08:16:42;10.30;99.90
35970;DHT22;22448;51.298;6.430;2024-03-23T08:19:15;9.70;99.90
35970;DHT22;22448;51.298;6.430;2024-03-23T08:21:41;9.30;99.90
35970;DHT22;22448;51.298;6.430;2024-03-23T08:24:07;8.90;99.90
35970;DHT22;22448;51.298;6.430;2024-03-23T08:26:34;8.60;99.90
35970;DHT22;22448;51.298;6.430;2024-03-23T08:29:00;8.40;99.90
35970;DHT22;22448;51.298;6.430;2024-03-23T08:31:26;8.10;99.90
35970;DHT22;22448;51.298;6.430;2024-03-23T08:33:52;8.10;99.90
35970;DHT22;22448;51.298;6.430;2024-03-23T08:36:18;7.90;99.90
35970;DHT22;22448;51.298;6.430;2024-03-23T08:38:44;7.70;99.90
35970;DHT22;22448;51.298;6.430;2024-03-23T08:41:11;7.60;99.90
35970;DHT22;22448;51.298;6.430;2024-03-23T08:43:38;7.60;99.90
35970;DHT22;22448;51.298;6.430;2024-03-23T08:46:13;7.60;99.90
35970;DHT22;22448;51.298;6.430;2024-03-23T08:48:41;7.80;99.90
35970;DHT22;22448;51.298;6.430;2024-03-23T08:51:10;8.10;99.90
35970;DHT22;22448;51.298;6.430;2024-03-23T08:53:37;8.30;99.90
35970;DHT22;22448;51.298;6.430;2024-03-23T08:56:04;8.70;99.90
35970;DHT22;22448;51.298;6.430;2024-03-23T08:58:33;9.50;99.90
35970;DHT22;22448;51.298;6.430;2024-03-23T09:01:09;9.90;99.90
35970;DHT22;22448;51.298;6.430;2024-03-23T09:03:36;10.60;99.90
35970;DHT22;22448;51.298;6.430;2024-03-23T09:06:07;11.10;99.90
35970;DHT22;22448;51.298;6.430;2024-03-23T09:08:35;11.00;99.90
35970;DHT22;22448;51.298;6.430;2024-03-23T09:11:06;10.70;99.90
35970;DHT22;22448;51.298;6.430;2024-03-23T09:13:36;10.80;99.90
35970;DHT22;22448;51.298;6.430;2024-03-23T09:16:04;11.10;99.90
35970;DHT22;22448;51.298;6.430;2024-03-23T09:18:35;11.20;99.90
35970;DHT22;22448;51.298;6.430;2024-03-23T09:21:02;11.40;99.90
35970;DHT22;22448;51.298;6.430;2024-03-23T09:23:28;10.80;99.90
35970;DHT22;22448;51.298;6.430;2024-03-23T09:25:54;10.20;99.90
35970;DHT22;22448;51.298;6.430;2024-03-23T09:28:21;9.60;99.90
35970;DHT22;22448;51.298;6.430;2024-03-23T09:30:48;9.30;99.90
35970;DHT22;22448;51.298;6.430;2024-03-23T09:33:14;9.50;99.90
35970;DHT22;22448;51.298;6.430;2024-03-23T09:35:42;9.80;99.90
35970;DHT22;22448;51.298;6.430;2024-03-23T09:38:08;10.20;99.90
35970;DHT22;22448;51.298;6.430;2024-03-23T09:40:45;10.90;99.90
35970;DHT22;22448;51.298;6.430;2024-03-23T09:43:11;11.30;99.90
35970;DHT22;22448;51.298;6.430;2024-03-23T09:45:41;11.30;99.90
35970;DHT22;22448;51.298;6.430;2024-03-23T09:48:08;10.70;99.90
35970;DHT22;22448;51.298;6.430;2024-03-23T09:53:06;9.90;99.90
35970;DHT22;22448;51.298;6.430;2024-03-23T09:55:33;9.60;99.90
35970;DHT22;22448;51.298;6.430;2024-03-23T09:58:02;9.40;99.90
35970;DHT22;22448;51.298;6.430;2024-03-23T10:00:28;9.10;99.90
35970;DHT22;22448;51.298;6.430;2024-03-23T10:02:55;8.50;99.90
35970;DHT22;22448;51.298;6.430;2024-03-23T10:05:22;8.20;99.90
35970;DHT22;22448;51.298;6.430;2024-03-23T10:07:50;7.90;99.90
35970;DHT22;22448;51.298;6.430;2024-03-23T10:10:17;7.70;99.90
35970;DHT22;22448;51.298;6.430;2024-03-23T10:12:47;7.40;99.90
35970;DHT22;22448;51.298;6.430;2024-03-23T10:15:23;7.20;99.90
35970;DHT22;22448;51.298;6.430;2024-03-23T10:17:50;7.10;99.90
35970;DHT22;22448;51.298;6.430;2024-03-23T10:20:20;7.20;99.90
35970;DHT22;22448;51.298;6.430;2024-03-23T10:22:49;7.30;99.90
35970;DHT22;22448;51.298;6.430;2024-03-23T10:25:15;7.50;99.90
35970;DHT22;22448;51.298;6.430;2024-03-23T10:27:42;7.40;99.90
35970;DHT22;22448;51.298;6.430;2024-03-23T10:30:13;7.00;99.90
35970;DHT22;22448;51.298;6.430;2024-03-23T10:32:43;6.60;99.90
35970;DHT22;22448;51.298;6.430;2024-03-23T10:35:17;6.40;99.90
35970;DHT22;22448;51.298;6.430;2024-03-23T10:37:49;6.50;99.90
35970;DHT22;22448;51.298;6.430;2024-03-23T10:40:17;7.10;99.90
35970;DHT22;22448;51.298;6.430;2024-03-23T10:42:47;7.60;99.90
35970;DHT22;22448;51.298;6.430;2024-03-23T10:45:13;8.00;99.90
35970;DHT22;22448;51.298;6.430;2024-03-23T10:47:39;8.40;99.90
35970;DHT22;22448;51.298;6.430;2024-03-23T10:50:05;8.90;99.90
35970;DHT22;22448;51.298;6.430;2024-03-23T10:52:33;9.20;99.90
35970;DHT22;22448;51.298;6.430;2024-03-23T10:55:02;9.40;99.90
35970;DHT22;22448;51.298;6.430;2024-03-23T10:57:35;9.60;99.90
35970;DHT22;22448;51.298;6.430;2024-03-23T11:00:04;9.80;99.90
35970;DHT22;22448;51.298;6.430;2024-03-23T11:02:31;10.00;99.90
35970;DHT22;22448;51.298;6.430;2024-03-23T11:04:58;10.10;99.90
35970;DHT22;22448;51.298;6.430;2024-03-23T11:09:50;10.30;99.90
35970;DHT22;22448;51.298;6.430;2024-03-23T11:17:20;10.50;99.90
35970;DHT22;22448;51.298;6.430;2024-03-23T11:20:03;10.50;99.90
35970;DHT22;22448;51.298;6.430;2024-03-23T11:25:12;11.30;99.90
35970;DHT22;22448;51.298;6.430;2024-03-23T11:27:37;11.20;99.90
35970;DHT22;22448;51.298;6.430;2024-03-23T11:30:18;10.70;99.90
35970;DHT22;22448;51.298;6.430;2024-03-23T11:32:45;9.70;99.90
35970;DHT22;22448;51.298;6.430;2024-03-23T11:35:25;8.70;99.90
35970;DHT22;22448;51.298;6.430;2024-03-23T11:38:14;8.10;99.90
35970;DHT22;22448;51.298;6.430;2024-03-23T11:40:44;7.70;99.90
35970;DHT22;22448;51.298;6.430;2024-03-23T11:45:42;7.50;99.90
35970;DHT22;22448;51.298;6.430;2024-03-23T11:50:38;7.80;99.90
35970;DHT22;22448;51.298;6.430;2024-03-23T11:55:52;8.40;99.90
35970;DHT22;22448;51.298;6.430;2024-03-23T11:58:19;9.10;99.90
35970;DHT22;22448;51.298;6.430;2024-03-23T12:00:57;9.80;99.90
35970;DHT22;22448;51.298;6.430;2024-03-23T12:03:25;10.30;99.90
35970;DHT22;22448;51.298;6.430;2024-03-23T12:05:58;10.70;99.90
35970;DHT22;22448;51.298;6.430;2024-03-23T12:13:32;10.70;99.90
35970;DHT22;22448;51.298;6.430;2024-03-23T12:16:16;10.30;99.90
35970;DHT22;22448;51.298;6.430;2024-03-23T12:18:52;9.90;99.90
35970;DHT22;22448;51.298;6.430;2024-03-23T12:21:18;9.60;99.90
35970;DHT22;22448;51.298;6.430;2024-03-23T12:23:44;9.50;99.90
35970;DHT22;22448;51.298;6.430;2024-03-23T12:26:13;9.60;99.90
35970;DHT22;22448;51.298;6.430;2024-03-23T12:28:39;9.60;99.90
35970;DHT22;22448;51.298;6.430;2024-03-23T12:31:05;9.70;99.90
35970;DHT22;22448;51.298;6.430;2024-03-23T12:33:31;9.70;99.90
35970;DHT22;22448;51.298;6.430;2024-03-23T12:35:58;9.70;99.90
35970;DHT22;22448;51.298;6.430;2024-03-23T12:38:24;9.90;99.90
35970;DHT22;22448;51.298;6.430;2024-03-23T12:40:50;10.20;99.90
35970;DHT22;22448;51.298;6.430;2024-03-23T12:43:17;10.50;99.90
35970;DHT22;22448;51.298;6.430;2024-03-23T12:45:50;10.30;99.90
35970;DHT22;22448;51.298;6.430;2024-03-23T12:48:16;9.90;99.90
35970;DHT22;22448;51.298;6.430;2024-03-23T12:50:43;9.60;99.90
35970;DHT22;22448;51.298;6.430;2024-03-23T12:53:09;9.30;99.90
35970;DHT22;22448;51.298;6.430;2024-03-23T12:55:36;8.70;99.90
35970;DHT22;22448;51.298;6.430;2024-03-23T12:58:02;8.10;99.90
35970;DHT22;22448;51.298;6.430;2024-03-23T13:00:29;7.60;99.90
35970;DHT22;22448;51.298;6.430;2024-03-23T13:02:55;7.30;99.90
35970;DHT22;22448;51.298;6.430;2024-03-23T13:05:21;7.20;99.90
35970;DHT22;22448;51.298;6.430;2024-03-23T13:07:47;7.20;99.90
35970;DHT22;22448;51.298;6.430;2024-03-23T13:10:13;7.30;99.90
35970;DHT22;22448;51.298;6.430;2024-03-23T13:12:40;7.80;99.90
35970;DHT22;22448;51.298;6.430;2024-03-23T13:15:08;8.40;99.90
35970;DHT22;22448;51.298;6.430;2024-03-23T13:17:35;9.10;99.90
35970;DHT22;22448;51.298;6.430;2024-03-23T13:20:01;9.60;99.90
35970;DHT22;22448;51.298;6.430;2024-03-23T13:22:27;9.90;99.90
35970;DHT22;22448;51.298;6.430;2024-03-23T13:24:54;10.20;99.90
35970;DHT22;22448;51.298;6.430;2024-03-23T13:27:20;10.10;99.90
35970;DHT22;22448;51.298;6.430;2024-03-23T13:29:46;9.60;99.90
35970;DHT22;22448;51.298;6.430;2024-03-23T13:32:13;9.30;99.90
35970;DHT22;22448;51.298;6.430;2024-03-23T13:34:39;9.30;99.90
35970;DHT22;22448;51.298;6.430;2024-03-23T13:37:06;9.50;99.90
35970;DHT22;22448;51.298;6.430;2024-03-23T13:39:33;9.40;99.90
35970;DHT22;22448;51.298;6.430;2024-03-23T13:41:59;9.30;99.90
35970;DHT22;22448;51.298;6.430;2024-03-23T13:44:25;9.30;99.90
35970;DHT22;22448;51.298;6.430;2024-03-23T13:46:52;9.30;99.90
35970;DHT22;22448;51.298;6.430;2024-03-23T13:49:26;9.40;99.90
35970;DHT22;22448;51.298;6.430;2024-03-23T13:51:56;9.80;99.90
35970;DHT22;22448;51.298;6.430;2024-03-23T13:54:25;10.20;99.90
35970;DHT22;22448;51.298;6.430;2024-03-23T13:56:53;10.50;99.90
35970;DHT22;22448;51.298;6.430;2024-03-23T13:59:20;10.70;99.90
35970;DHT22;22448;51.298;6.430;2024-03-23T14:01:47;10.70;99.90
35970;DHT22;22448;51.298;6.430;2024-03-23T14:04:13;10.50;99.90
35970;DHT22;22448;51.298;6.430;2024-03-23T14:06:43;10.20;99.90
35970;DHT22;22448;51.298;6.430;2024-03-23T14:09:12;9.60;99.90
35970;DHT22;22448;51.298;6.430;2024-03-23T14:11:39;9.20;99.90
35970;DHT22;22448;51.298;6.430;2024-03-23T14:14:07;8.90;99.90
35970;DHT22;22448;51.298;6.430;2024-03-23T14:16:33;8.70;99.90
35970;DHT22;22448;51.298;6.430;2024-03-23T14:19:00;8.50;99.90
35970;DHT22;22448;51.298;6.430;2024-03-23T14:21:26;8.40;99.90
35970;DHT22;22448;51.298;6.430;2024-03-23T14:23:52;8.40;99.90
35970;DHT22;22448;51.298;6.430;2024-03-23T14:26:19;8.40;99.90
35970;DHT22;22448;51.298;6.430;2024-03-23T14:28:45;8.50;99.90
35970;DHT22;22448;51.298;6.430;2024-03-23T14:31:12;8.70;99.90
35970;DHT22;22448;51.298;6.430;2024-03-23T14:33:38;9.20;99.90
35970;DHT22;22448;51.298;6.430;2024-03-23T14:36:07;9.70;99.90
35970;DHT22;22448;51.298;6.430;2024-03-23T14:38:33;9.90;99.90
35970;DHT22;22448;51.298;6.430;2024-03-23T14:41:00;10.10;99.90
35970;DHT22;22448;51.298;6.430;2024-03-23T14:43:28;10.00;99.90
35970;DHT22;22448;51.298;6.430;2024-03-23T14:46:13;10.10;99.90
35970;DHT22;22448;51.298;6.430;2024-03-23T14:48:41;10.10;99.90
35970;DHT22;22448;51.298;6.430;2024-03-23T14:51:09;10.10;99.90
35970;DHT22;22448;51.298;6.430;2024-03-23T14:53:37;10.00;99.90
35970;DHT22;22448;51.298;6.430;2024-03-23T14:56:05;9.90;99.90
35970;DHT22;22448;51.298;6.430;2024-03-23T14:58:32;9.70;99.90
35970;DHT22;22448;51.298;6.430;2024-03-23T15:01:07;9.60;99.90
35970;DHT22;22448;51.298;6.430;2024-03-23T15:03:40;9.20;99.90
35970;DHT22;22448;51.298;6.430;2024-03-23T15:06:06;9.00;99.90
35970;DHT22;22448;51.298;6.430;2024-03-23T15:08:35;8.80;99.90
35970;DHT22;22448;51.298;6.430;2024-03-23T15:11:02;8.70;99.90
35970;DHT22;22448;51.298;6.430;2024-03-23T15:13:38;8.60;99.90
35970;DHT22;22448;51.298;6.430;2024-03-23T15:16:05;8.50;99.90
35970;DHT22;22448;51.298;6.430;2024-03-23T15:18:32;8.40;99.90
35970;DHT22;22448;51.298;6.430;2024-03-23T15:21:00;8.30;99.90
35970;DHT22;22448;51.298;6.430;2024-03-23T15:23:32;8.30;99.90
35970;DHT22;22448;51.298;6.430;2024-03-23T15:25:59;8.30;99.90
35970;DHT22;22448;51.298;6.430;2024-03-23T15:28:26;8.30;99.90
35970;DHT22;22448;51.298;6.430;2024-03-23T15:31:05;8.20;99.90
35970;DHT22;22448;51.298;6.430;2024-03-23T15:33:31;8.10;99.90
35970;DHT22;22448;51.298;6.430;2024-03-23T15:36:01;8.00;99.90
35970;DHT22;22448;51.298;6.430;2024-03-23T15:38:28;7.90;99.90
35970;DHT22;22448;51.298;6.430;2024-03-23T15:40:55;7.90;99.90
35970;DHT22;22448;51.298;6.430;2024-03-23T15:43:21;7.80;99.90
35970;DHT22;22448;51.298;6.430;2024-03-23T15:45:57;7.80;99.90
35970;DHT22;22448;51.298;6.430;2024-03-23T15:48:26;7.80;99.90
35970;DHT22;22448;51.298;6.430;2024-03-23T15:53:23;7.70;99.90
35970;DHT22;22448;51.298;6.430;2024-03-23T15:56:00;7.80;99.90
35970;DHT22;22448;51.298;6.430;2024-03-23T15:58:29;7.70;99.90
35970;DHT22;22448;51.298;6.430;2024-03-23T16:01:06;7.70;99.90
35970;DHT22;22448;51.298;6.430;2024-03-23T16:03:36;7.60;99.90
35970;DHT22;22448;51.298;6.430;2024-03-23T16:06:04;7.60;99.90
35970;DHT22;22448;51.298;6.430;2024-03-23T16:08:31;7.40;99.90
35970;DHT22;22448;51.298;6.430;2024-03-23T16:11:04;7.30;99.90
35970;DHT22;22448;51.298;6.430;2024-03-23T16:13:31;7.30;99.90
35970;DHT22;22448;51.298;6.430;2024-03-23T16:15:58;7.30;99.90
35970;DHT22;22448;51.298;6.430;2024-03-23T16:18:25;7.40;99.90
35970;DHT22;22448;51.298;6.430;2024-03-23T16:20:59;7.40;99.90
35970;DHT22;22448;51.298;6.430;2024-03-23T16:23:26;7.50;99.90
35970;DHT22;22448;51.298;6.430;2024-03-23T16:25:53;7.40;99.90
35970;DHT22;22448;51.298;6.430;2024-03-23T16:28:26;7.40;99.90
35970;DHT22;22448;51.298;6.430;2024-03-23T16:31:05;7.50;99.90
35970;DHT22;22448;51.298;6.430;2024-03-23T16:33:36;7.40;99.90
35970;DHT22;22448;51.298;6.430;2024-03-23T16:36:07;7.40;99.90
35970;DHT22;22448;51.298;6.430;2024-03-23T16:38:36;7.40;99.90
35970;DHT22;22448;51.298;6.430;2024-03-23T16:41:04;7.40;99.90
35970;DHT22;22448;51.298;6.430;2024-03-23T16:43:33;7.30;99.90
35970;DHT22;22448;51.298;6.430;2024-03-23T16:46:01;7.30;99.90
35970;DHT22;22448;51.298;6.430;2024-03-23T16:48:28;7.20;99.90
35970;DHT22;22448;51.298;6.430;2024-03-23T16:50:57;7.10;99.90
35970;DHT22;22448;51.298;6.430;2024-03-23T16:53:23;7.10;99.90
35970;DHT22;22448;51.298;6.430;2024-03-23T16:56:09;7.10;99.90
35970;DHT22;22448;51.298;6.430;2024-03-23T16:58:37;7.10;99.90
35970;DHT22;22448;51.298;6.430;2024-03-23T17:01:08;7.00;99.90
35970;DHT22;22448;51.298;6.430;2024-03-23T17:03:36;6.70;99.90
35970;DHT22;22448;51.298;6.430;2024-03-23T17:06:06;6.40;99.90